sensor_id;sensor_type;location;lat;lon;timestamp;temperature;humidity
736;DHT22;352;48.626;9.238;2022-11-25T00:01:52;3.40;99.90
736;DHT22;352;48.626;9.238;2022-11-25T00:04:18;3.40;99.90
736;DHT22;352;48.626;9.238;2022-11-25T00:06:47;3.40;99.90
736;DHT22;352;48.626;9.238;2022-11-25T00:09:13;3.40;99.90
736;DHT22;352;48.626;9.238;2022-11-25T00:11:41;3.40;99.90
736;DHT22;352;48.626;9.238;2022-11-25T00:14:12;3.40;99.90
736;DHT22;352;48.626;9.238;2022-11-25T00:16:39;3.30;99.90
736;DHT22;352;48.626;9.238;2022-11-25T00:19:06;3.30;99.90
736;DHT22;352;48.626;9.238;2022-11-25T00:21:33;3.30;99.90
736;DHT22;352;48.626;9.238;2022-11-25T00:24:03;3.30;99.90
736;DHT22;352;48.626;9.238;2022-11-25T00:26:32;3.30;99.90
736;DHT22;352;48.626;9.238;2022-11-25T00:29:00;3.30;99.90
736;DHT22;352;48.626;9.238;2022-11-25T00:31:29;3.20;99.90
736;DHT22;352;48.626;9.238;2022-11-25T00:33:56;3.20;99.90
736;DHT22;352;48.626;9.238;2022-11-25T00:36:25;3.20;99.90
736;DHT22;352;48.626;9.238;2022-11-25T00:38:53;3.20;99.90
736;DHT22;352;48.626;9.238;2022-11-25T00:41:22;3.20;99.90
736;DHT22;352;48.626;9.238;2022-11-25T00:44:08;3.20;99.90
736;DHT22;352;48.626;9.238;2022-11-25T00:46:52;3.20;99.90
736;DHT22;352;48.626;9.238;2022-11-25T00:49:19;3.20;99.90
736;DHT22;352;48.626;9.238;2022-11-25T00:51:46;3.20;99.90
736;DHT22;352;48.626;9.238;2022-11-25T00:54:13;3.20;99.90
736;DHT22;352;48.626;9.238;2022-11-25T00:56:41;3.10;99.90
736;DHT22;352;48.626;9.238;2022-11-25T00:59:08;3.00;99.90
736;DHT22;352;48.626;9.238;2022-11-25T01:01:35;3.00;99.90
736;DHT22;352;48.626;9.238;2022-11-25T01:04:02;3.00;99.90
736;DHT22;352;48.626;9.238;2022-11-25T01:06:29;3.00;99.90
736;DHT22;352;48.626;9.238;2022-11-25T01:08:56;3.10;99.90
736;DHT22;352;48.626;9.238;2022-11-25T01:11:23;3.10;99.90
736;DHT22;352;48.626;9.238;2022-11-25T01:13:51;3.10;99.90
736;DHT22;352;48.626;9.238;2022-11-25T01:16:21;3.20;99.90
736;DHT22;352;48.626;9.238;2022-11-25T01:18:48;3.20;99.90
736;DHT22;352;48.626;9.238;2022-11-25T01:21:18;3.30;99.90
736;DHT22;352;48.626;9.238;2022-11-25T01:23:45;3.40;99.90
736;DHT22;352;48.626;9.238;2022-11-25T01:26:16;3.40;99.90
736;DHT22;352;48.626;9.238;2022-11-25T01:28:43;3.40;99.90
736;DHT22;352;48.626;9.238;2022-11-25T01:31:13;3.50;99.90
736;DHT22;352;48.626;9.238;2022-11-25T01:33:41;3.50;99.90
736;DHT22;352;48.626;9.238;2022-11-25T01:36:10;3.50;99.90
736;DHT22;352;48.626;9.238;2022-11-25T01:38:37;3.50;99.90
736;DHT22;352;48.626;9.238;2022-11-25T01:41:05;3.50;99.90
736;DHT22;352;48.626;9.238;2022-11-25T01:43:32;3.50;99.90
736;DHT22;352;48.626;9.238;2022-11-25T01:46:03;3.50;99.90
736;DHT22;352;48.626;9.238;2022-11-25T01:48:38;3.50;99.90
736;DHT22;352;48.626;9.238;2022-11-25T01:51:17;3.50;99.90
736;DHT22;352;48.626;9.238;2022-11-25T01:53:47;3.40;99.90
736;DHT22;352;48.626;9.238;2022-11-25T01:56:15;3.40;99.90
736;DHT22;352;48.626;9.238;2022-11-25T01:58:42;3.40;99.90
736;DHT22;352;48.626;9.238;2022-11-25T02:01:10;3.40;99.90
736;DHT22;352;48.626;9.238;2022-11-25T02:03:42;3.50;99.90
736;DHT22;352;48.626;9.238;2022-11-25T02:06:14;3.50;99.90
736;DHT22;352;48.626;9.238;2022-11-25T02:08:45;3.60;99.90
736;DHT22;352;48.626;9.238;2022-11-25T02:11:15;3.60;99.90
736;DHT22;352;48.626;9.238;2022-11-25T02:13:43;3.60;99.90
736;DHT22;352;48.626;9.238;2022-11-25T02:16:11;3.70;99.90
736;DHT22;352;48.626;9.238;2022-11-25T02:18:39;3.60;99.90
736;DHT22;352;48.626;9.238;2022-11-25T02:21:06;3.60;99.90
736;DHT22;352;48.626;9.238;2022-11-25T02:23:39;3.60;99.90
736;DHT22;352;48.626;9.238;2022-11-25T02:26:10;3.60;99.90
736;DHT22;352;48.626;9.238;2022-11-25T02:28:38;3.60;99.90
736;DHT22;352;48.626;9.238;2022-11-25T02:31:06;3.60;99.90
736;DHT22;352;48.626;9.238;2022-11-25T02:33:33;3.50;99.90
736;DHT22;352;48.626;9.238;2022-11-25T02:36:02;3.50;99.90
736;DHT22;352;48.626;9.238;2022-11-25T02:38:35;3.50;99.90
736;DHT22;352;48.626;9.238;2022-11-25T02:41:06;3.50;99.90
736;DHT22;352;48.626;9.238;2022-11-25T02:43:37;3.50;99.90
736;DHT22;352;48.626;9.238;2022-11-25T02:46:06;3.40;99.90
736;DHT22;352;48.626;9.238;2022-11-25T02:48:35;3.40;99.90
736;DHT22;352;48.626;9.238;2022-11-25T02:51:03;3.40;99.90
736;DHT22;352;48.626;9.238;2022-11-25T02:53:30;3.40;99.90
736;DHT22;352;48.626;9.238;2022-11-25T02:55:57;3.40;99.90
736;DHT22;352;48.626;9.238;2022-11-25T02:58:23;3.40;99.90
736;DHT22;352;48.626;9.238;2022-11-25T03:00:52;3.40;99.90
736;DHT22;352;48.626;9.238;2022-11-25T03:03:18;3.40;99.90
736;DHT22;352;48.626;9.238;2022-11-25T03:05:45;3.40;99.90
736;DHT22;352;48.626;9.238;2022-11-25T03:08:12;3.30;99.90
736;DHT22;352;48.626;9.238;2022-11-25T03:10:39;3.30;99.90
736;DHT22;352;48.626;9.238;2022-11-25T03:13:07;3.30;99.90
736;DHT22;352;48.626;9.238;2022-11-25T03:15:34;3.30;99.90
736;DHT22;352;48.626;9.238;2022-11-25T03:18:03;3.30;99.90
736;DHT22;352;48.626;9.238;2022-11-25T03:20:30;3.30;99.90
736;DHT22;352;48.626;9.238;2022-11-25T03:22:57;3.30;99.90
736;DHT22;352;48.626;9.238;2022-11-25T03:25:24;3.30;99.90
736;DHT22;352;48.626;9.238;2022-11-25T03:27:50;3.40;99.90
736;DHT22;352;48.626;9.238;2022-11-25T03:30:19;3.40;99.90
736;DHT22;352;48.626;9.238;2022-11-25T03:32:46;3.40;99.90
736;DHT22;352;48.626;9.238;2022-11-25T03:35:14;3.40;99.90
736;DHT22;352;48.626;9.238;2022-11-25T03:37:42;3.40;99.90
736;DHT22;352;48.626;9.238;2022-11-25T03:40:10;3.30;99.90
736;DHT22;352;48.626;9.238;2022-11-25T03:42:37;3.30;99.90
736;DHT22;352;48.626;9.238;2022-11-25T03:45:05;3.30;99.90
736;DHT22;352;48.626;9.238;2022-11-25T03:47:33;3.40;99.90
736;DHT22;352;48.626;9.238;2022-11-25T03:49:59;3.40;99.90
736;DHT22;352;48.626;9.238;2022-11-25T03:52:27;3.30;99.90
736;DHT22;352;48.626;9.238;2022-11-25T03:54:54;3.30;99.90
736;DHT22;352;48.626;9.238;2022-11-25T03:57:21;3.30;99.90
736;DHT22;352;48.626;9.238;2022-11-25T03:59:48;3.30;99.90
736;DHT22;352;48.626;9.238;2022-11-25T04:02:15;3.30;99.90
736;DHT22;352;48.626;9.238;2022-11-25T04:04:41;3.30;99.90
736;DHT22;352;48.626;9.238;2022-11-25T04:07:10;3.30;99.90
736;DHT22;352;48.626;9.238;2022-11-25T04:09:38;3.30;99.90
736;DHT22;352;48.626;9.238;2022-11-25T04:12:05;3.30;99.90
736;DHT22;352;48.626;9.238;2022-11-25T04:14:49;3.30;99.90
736;DHT22;352;48.626;9.238;2022-11-25T04:17:16;3.30;99.90
736;DHT22;352;48.626;9.238;2022-11-25T04:19:43;3.40;99.90
736;DHT22;352;48.626;9.238;2022-11-25T04:22:10;3.40;99.90
736;DHT22;352;48.626;9.238;2022-11-25T04:24:36;3.40;99.90
736;DHT22;352;48.626;9.238;2022-11-25T04:27:04;3.40;99.90
736;DHT22;352;48.626;9.238;2022-11-25T04:29:31;3.40;99.90
736;DHT22;352;48.626;9.238;2022-11-25T04:31:58;3.40;99.90
736;DHT22;352;48.626;9.238;2022-11-25T04:34:25;3.40;99.90
736;DHT22;352;48.626;9.238;2022-11-25T04:36:51;3.40;99.90
736;DHT22;352;48.626;9.238;2022-11-25T04:39:18;3.30;99.90
736;DHT22;352;48.626;9.238;2022-11-25T04:41:45;3.30;99.90
736;DHT22;352;48.626;9.238;2022-11-25T04:44:13;3.20;99.90
736;DHT22;352;48.626;9.238;2022-11-25T04:46:41;3.20;99.90
736;DHT22;352;48.626;9.238;2022-11-25T04:49:10;3.20;99.90
736;DHT22;352;48.626;9.238;2022-11-25T04:51:36;3.20;99.90
736;DHT22;352;48.626;9.238;2022-11-25T04:54:03;3.20;99.90
736;DHT22;352;48.626;9.238;2022-11-25T04:56:31;3.30;99.90
736;DHT22;352;48.626;9.238;2022-11-25T04:59:00;3.30;99.90
736;DHT22;352;48.626;9.238;2022-11-25T05:01:45;3.30;99.90
736;DHT22;352;48.626;9.238;2022-11-25T05:04:12;3.20;99.90
736;DHT22;352;48.626;9.238;2022-11-25T05:06:39;3.20;99.90
736;DHT22;352;48.626;9.238;2022-11-25T05:09:06;3.20;99.90
736;DHT22;352;48.626;9.238;2022-11-25T05:11:36;3.20;99.90
736;DHT22;352;48.626;9.238;2022-11-25T05:14:03;3.10;99.90
736;DHT22;352;48.626;9.238;2022-11-25T05:16:29;3.10;99.90
736;DHT22;352;48.626;9.238;2022-11-25T05:18:57;3.10;99.90
736;DHT22;352;48.626;9.238;2022-11-25T05:21:24;3.10;99.90
736;DHT22;352;48.626;9.238;2022-11-25T05:23:52;3.10;99.90
736;DHT22;352;48.626;9.238;2022-11-25T05:26:19;3.10;99.90
736;DHT22;352;48.626;9.238;2022-11-25T05:28:46;3.10;99.90
736;DHT22;352;48.626;9.238;2022-11-25T05:31:13;3.00;99.90
736;DHT22;352;48.626;9.238;2022-11-25T05:33:39;3.00;99.90
736;DHT22;352;48.626;9.238;2022-11-25T05:36:09;3.00;99.90
736;DHT22;352;48.626;9.238;2022-11-25T05:38:36;3.00;99.90
736;DHT22;352;48.626;9.238;2022-11-25T05:41:05;2.90;99.90
736;DHT22;352;48.626;9.238;2022-11-25T05:43:33;2.90;99.90
736;DHT22;352;48.626;9.238;2022-11-25T05:46:03;2.90;99.90
736;DHT22;352;48.626;9.238;2022-11-25T05:48:30;2.90;99.90
736;DHT22;352;48.626;9.238;2022-11-25T05:50:58;2.90;99.90
736;DHT22;352;48.626;9.238;2022-11-25T05:53:26;2.90;99.90
736;DHT22;352;48.626;9.238;2022-11-25T05:55:54;3.00;99.90
736;DHT22;352;48.626;9.238;2022-11-25T05:58:24;3.00;99.90
736;DHT22;352;48.626;9.238;2022-11-25T06:00:51;3.10;99.90
736;DHT22;352;48.626;9.238;2022-11-25T06:03:18;3.10;99.90
736;DHT22;352;48.626;9.238;2022-11-25T06:05:45;3.20;99.90
736;DHT22;352;48.626;9.238;2022-11-25T06:08:17;3.30;99.90
736;DHT22;352;48.626;9.238;2022-11-25T06:11:09;3.30;99.90
736;DHT22;352;48.626;9.238;2022-11-25T06:13:58;3.40;99.90
736;DHT22;352;48.626;9.238;2022-11-25T06:16:25;3.40;99.90
736;DHT22;352;48.626;9.238;2022-11-25T06:18:53;3.40;99.90
736;DHT22;352;48.626;9.238;2022-11-25T06:21:19;3.40;99.90
736;DHT22;352;48.626;9.238;2022-11-25T06:23:46;3.40;99.90
736;DHT22;352;48.626;9.238;2022-11-25T06:26:16;3.40;99.90
736;DHT22;352;48.626;9.238;2022-11-25T06:28:44;3.40;99.90
736;DHT22;352;48.626;9.238;2022-11-25T06:31:15;3.30;99.90
736;DHT22;352;48.626;9.238;2022-11-25T06:33:45;3.30;99.90
736;DHT22;352;48.626;9.238;2022-11-25T06:36:13;3.30;99.90
736;DHT22;352;48.626;9.238;2022-11-25T06:38:42;3.30;99.90
736;DHT22;352;48.626;9.238;2022-11-25T06:41:08;3.30;99.90
736;DHT22;352;48.626;9.238;2022-11-25T06:43:37;3.30;99.90
736;DHT22;352;48.626;9.238;2022-11-25T06:46:05;3.30;99.90
736;DHT22;352;48.626;9.238;2022-11-25T06:48:33;3.20;99.90
736;DHT22;352;48.626;9.238;2022-11-25T06:51:01;3.30;99.90
736;DHT22;352;48.626;9.238;2022-11-25T06:53:29;3.20;99.90
736;DHT22;352;48.626;9.238;2022-11-25T06:56:04;3.20;99.90
736;DHT22;352;48.626;9.238;2022-11-25T06:58:31;3.20;99.90
736;DHT22;352;48.626;9.238;2022-11-25T07:01:04;3.20;99.90
736;DHT22;352;48.626;9.238;2022-11-25T07:03:33;3.30;99.90
736;DHT22;352;48.626;9.238;2022-11-25T07:06:00;3.30;99.90
736;DHT22;352;48.626;9.238;2022-11-25T07:08:28;3.30;99.90
736;DHT22;352;48.626;9.238;2022-11-25T07:11:00;3.40;99.90
736;DHT22;352;48.626;9.238;2022-11-25T07:13:45;3.40;99.90
736;DHT22;352;48.626;9.238;2022-11-25T07:16:13;3.50;99.90
736;DHT22;352;48.626;9.238;2022-11-25T07:18:41;3.50;99.90
736;DHT22;352;48.626;9.238;2022-11-25T07:21:09;3.50;99.90
736;DHT22;352;48.626;9.238;2022-11-25T07:23:36;3.70;99.90
736;DHT22;352;48.626;9.238;2022-11-25T07:26:05;3.70;99.90
736;DHT22;352;48.626;9.238;2022-11-25T07:28:32;3.90;99.90
736;DHT22;352;48.626;9.238;2022-11-25T07:31:06;4.00;99.90
736;DHT22;352;48.626;9.238;2022-11-25T07:33:35;4.10;99.90
736;DHT22;352;48.626;9.238;2022-11-25T07:36:03;4.20;99.90
736;DHT22;352;48.626;9.238;2022-11-25T07:38:38;4.30;99.90
736;DHT22;352;48.626;9.238;2022-11-25T07:41:06;4.40;99.90
736;DHT22;352;48.626;9.238;2022-11-25T07:43:37;4.50;99.90
736;DHT22;352;48.626;9.238;2022-11-25T07:46:10;4.50;99.90
736;DHT22;352;48.626;9.238;2022-11-25T07:48:39;4.50;99.90
736;DHT22;352;48.626;9.238;2022-11-25T07:51:16;4.60;99.90
736;DHT22;352;48.626;9.238;2022-11-25T07:53:44;4.70;99.90
736;DHT22;352;48.626;9.238;2022-11-25T07:56:11;4.80;99.90
736;DHT22;352;48.626;9.238;2022-11-25T07:58:39;5.00;99.90
736;DHT22;352;48.626;9.238;2022-11-25T08:01:07;5.20;99.90
736;DHT22;352;48.626;9.238;2022-11-25T08:03:35;5.40;99.90
736;DHT22;352;48.626;9.238;2022-11-25T08:06:05;5.50;99.90
736;DHT22;352;48.626;9.238;2022-11-25T08:08:34;5.60;99.90
736;DHT22;352;48.626;9.238;2022-11-25T08:11:05;5.60;99.90
736;DHT22;352;48.626;9.238;2022-11-25T08:13:32;5.60;99.90
736;DHT22;352;48.626;9.238;2022-11-25T08:16:01;5.60;99.90
736;DHT22;352;48.626;9.238;2022-11-25T08:18:28;5.60;99.90
736;DHT22;352;48.626;9.238;2022-11-25T08:20:57;5.50;99.90
736;DHT22;352;48.626;9.238;2022-11-25T08:23:26;5.40;99.90
736;DHT22;352;48.626;9.238;2022-11-25T08:25:53;5.30;99.90
736;DHT22;352;48.626;9.238;2022-11-25T08:28:20;5.30;99.90
736;DHT22;352;48.626;9.238;2022-11-25T08:30:46;5.20;99.90
736;DHT22;352;48.626;9.238;2022-11-25T08:33:15;5.30;99.90
736;DHT22;352;48.626;9.238;2022-11-25T08:35:41;5.30;99.90
736;DHT22;352;48.626;9.238;2022-11-25T08:38:10;5.30;99.90
736;DHT22;352;48.626;9.238;2022-11-25T08:40:42;5.30;99.90
736;DHT22;352;48.626;9.238;2022-11-25T08:43:09;5.40;99.90
736;DHT22;352;48.626;9.238;2022-11-25T08:45:37;5.60;99.90
736;DHT22;352;48.626;9.238;2022-11-25T08:48:06;5.80;99.90
736;DHT22;352;48.626;9.238;2022-11-25T08:50:33;6.00;99.90
736;DHT22;352;48.626;9.238;2022-11-25T08:53:00;6.20;99.90
736;DHT22;352;48.626;9.238;2022-11-25T08:55:27;6.40;99.90
736;DHT22;352;48.626;9.238;2022-11-25T08:57:55;6.70;99.90
736;DHT22;352;48.626;9.238;2022-11-25T09:00:22;6.80;99.90
736;DHT22;352;48.626;9.238;2022-11-25T09:02:48;7.00;99.90
736;DHT22;352;48.626;9.238;2022-11-25T09:05:16;7.00;99.90
736;DHT22;352;48.626;9.238;2022-11-25T09:07:43;7.00;99.90
736;DHT22;352;48.626;9.238;2022-11-25T09:10:14;7.00;99.90
736;DHT22;352;48.626;9.238;2022-11-25T09:12:42;6.90;99.90
736;DHT22;352;48.626;9.238;2022-11-25T09:15:10;6.80;99.90
736;DHT22;352;48.626;9.238;2022-11-25T09:17:37;6.80;99.90
736;DHT22;352;48.626;9.238;2022-11-25T09:20:05;6.80;99.90
736;DHT22;352;48.626;9.238;2022-11-25T09:22:32;6.80;99.90
736;DHT22;352;48.626;9.238;2022-11-25T09:24:59;7.00;99.90
736;DHT22;352;48.626;9.238;2022-11-25T09:27:25;7.20;99.90
736;DHT22;352;48.626;9.238;2022-11-25T09:29:52;7.40;99.90
736;DHT22;352;48.626;9.238;2022-11-25T09:32:20;7.60;99.90
736;DHT22;352;48.626;9.238;2022-11-25T09:34:47;7.90;99.90
736;DHT22;352;48.626;9.238;2022-11-25T09:37:14;8.20;99.90
736;DHT22;352;48.626;9.238;2022-11-25T09:39:41;8.40;99.90
736;DHT22;352;48.626;9.238;2022-11-25T09:42:24;8.60;99.90
736;DHT22;352;48.626;9.238;2022-11-25T09:45:17;8.70;99.90
736;DHT22;352;48.626;9.238;2022-11-25T09:48:16;8.90;99.90
736;DHT22;352;48.626;9.238;2022-11-25T09:50:53;9.10;99.90
736;DHT22;352;48.626;9.238;2022-11-25T09:53:37;9.10;99.90
736;DHT22;352;48.626;9.238;2022-11-25T09:56:10;9.20;99.90
736;DHT22;352;48.626;9.238;2022-11-25T09:58:43;9.30;99.90
736;DHT22;352;48.626;9.238;2022-11-25T10:01:17;9.30;99.90
736;DHT22;352;48.626;9.238;2022-11-25T10:03:47;9.30;99.90
736;DHT22;352;48.626;9.238;2022-11-25T10:06:19;9.20;99.90
736;DHT22;352;48.626;9.238;2022-11-25T10:08:50;9.20;99.90
736;DHT22;352;48.626;9.238;2022-11-25T10:11:25;9.30;99.90
736;DHT22;352;48.626;9.238;2022-11-25T10:13:57;9.30;99.90
736;DHT22;352;48.626;9.238;2022-11-25T10:16:32;9.40;99.90
736;DHT22;352;48.626;9.238;2022-11-25T10:19:09;9.50;99.90
736;DHT22;352;48.626;9.238;2022-11-25T10:21:37;9.60;99.90
736;DHT22;352;48.626;9.238;2022-11-25T10:24:05;9.70;99.90
736;DHT22;352;48.626;9.238;2022-11-25T10:26:43;9.80;99.90
736;DHT22;352;48.626;9.238;2022-11-25T10:29:23;10.00;99.90
736;DHT22;352;48.626;9.238;2022-11-25T10:31:54;10.20;99.90
736;DHT22;352;48.626;9.238;2022-11-25T10:34:29;10.50;99.90
736;DHT22;352;48.626;9.238;2022-11-25T10:36:58;10.60;99.90
736;DHT22;352;48.626;9.238;2022-11-25T10:39:28;10.80;99.90
736;DHT22;352;48.626;9.238;2022-11-25T10:41:58;10.90;99.90
736;DHT22;352;48.626;9.238;2022-11-25T10:44:30;10.90;99.90
736;DHT22;352;48.626;9.238;2022-11-25T10:47:11;11.10;99.90
736;DHT22;352;48.626;9.238;2022-11-25T10:49:49;11.10;99.90
736;DHT22;352;48.626;9.238;2022-11-25T10:52:20;11.20;99.90
736;DHT22;352;48.626;9.238;2022-11-25T10:54:55;11.20;99.90
736;DHT22;352;48.626;9.238;2022-11-25T10:57:27;11.30;99.90
736;DHT22;352;48.626;9.238;2022-11-25T10:59:56;11.40;99.90
736;DHT22;352;48.626;9.238;2022-11-25T11:02:25;11.40;99.90
736;DHT22;352;48.626;9.238;2022-11-25T11:04:59;11.50;99.90
736;DHT22;352;48.626;9.238;2022-11-25T11:07:29;11.50;99.90
736;DHT22;352;48.626;9.238;2022-11-25T11:10:14;11.40;99.90
736;DHT22;352;48.626;9.238;2022-11-25T11:12:52;11.40;99.90
736;DHT22;352;48.626;9.238;2022-11-25T11:15:22;11.30;99.90
736;DHT22;352;48.626;9.238;2022-11-25T11:17:52;11.20;99.90
736;DHT22;352;48.626;9.238;2022-11-25T11:20:23;11.10;99.90
736;DHT22;352;48.626;9.238;2022-11-25T11:23:01;11.00;99.90
736;DHT22;352;48.626;9.238;2022-11-25T11:25:30;11.00;99.90
736;DHT22;352;48.626;9.238;2022-11-25T11:27:59;10.90;99.90
736;DHT22;352;48.626;9.238;2022-11-25T11:30:27;10.90;99.90
736;DHT22;352;48.626;9.238;2022-11-25T11:32:58;11.00;99.90
736;DHT22;352;48.626;9.238;2022-11-25T11:35:41;11.00;99.90
736;DHT22;352;48.626;9.238;2022-11-25T11:38:23;11.10;99.90
736;DHT22;352;48.626;9.238;2022-11-25T11:40:54;11.10;99.90
736;DHT22;352;48.626;9.238;2022-11-25T11:43:34;11.10;99.90
736;DHT22;352;48.626;9.238;2022-11-25T11:46:13;11.10;99.90
736;DHT22;352;48.626;9.238;2022-11-25T11:48:47;11.10;99.90
736;DHT22;352;48.626;9.238;2022-11-25T11:51:21;11.10;99.90
736;DHT22;352;48.626;9.238;2022-11-25T11:53:57;11.10;99.90
736;DHT22;352;48.626;9.238;2022-11-25T11:56:32;11.10;99.90
736;DHT22;352;48.626;9.238;2022-11-25T11:59:27;11.10;99.90
736;DHT22;352;48.626;9.238;2022-11-25T12:02:09;11.20;99.90
736;DHT22;352;48.626;9.238;2022-11-25T12:04:42;11.20;99.90
736;DHT22;352;48.626;9.238;2022-11-25T12:07:17;11.20;99.90
736;DHT22;352;48.626;9.238;2022-11-25T12:09:50;11.30;99.90
736;DHT22;352;48.626;9.238;2022-11-25T12:12:18;11.30;99.90
736;DHT22;352;48.626;9.238;2022-11-25T12:14:49;11.30;99.90
736;DHT22;352;48.626;9.238;2022-11-25T12:17:19;11.40;99.90
736;DHT22;352;48.626;9.238;2022-11-25T12:19:54;11.50;99.90
736;DHT22;352;48.626;9.238;2022-11-25T12:22:27;11.50;99.90
736;DHT22;352;48.626;9.238;2022-11-25T12:25:02;11.60;99.90
736;DHT22;352;48.626;9.238;2022-11-25T12:27:33;11.70;99.90
736;DHT22;352;48.626;9.238;2022-11-25T12:30:04;11.80;99.90
736;DHT22;352;48.626;9.238;2022-11-25T12:32:57;11.80;99.90
736;DHT22;352;48.626;9.238;2022-11-25T12:35:34;11.90;99.90
736;DHT22;352;48.626;9.238;2022-11-25T12:38:14;11.90;99.90
736;DHT22;352;48.626;9.238;2022-11-25T12:40:46;12.00;99.90
736;DHT22;352;48.626;9.238;2022-11-25T12:43:23;12.00;99.90
736;DHT22;352;48.626;9.238;2022-11-25T12:45:57;12.10;99.90
736;DHT22;352;48.626;9.238;2022-11-25T12:48:25;12.10;99.90
736;DHT22;352;48.626;9.238;2022-11-25T12:50:57;12.10;99.90
736;DHT22;352;48.626;9.238;2022-11-25T12:53:36;12.10;99.90
736;DHT22;352;48.626;9.238;2022-11-25T12:56:10;12.10;99.90
736;DHT22;352;48.626;9.238;2022-11-25T12:58:46;12.20;99.90
736;DHT22;352;48.626;9.238;2022-11-25T13:01:41;12.20;99.90
736;DHT22;352;48.626;9.238;2022-11-25T13:04:47;12.20;99.90
736;DHT22;352;48.626;9.238;2022-11-25T13:07:26;12.20;99.90
736;DHT22;352;48.626;9.238;2022-11-25T13:10:31;12.30;99.90
736;DHT22;352;48.626;9.238;2022-11-25T13:13:19;12.40;99.90
736;DHT22;352;48.626;9.238;2022-11-25T13:15:50;12.40;99.90
736;DHT22;352;48.626;9.238;2022-11-25T13:18:20;12.30;99.90
736;DHT22;352;48.626;9.238;2022-11-25T13:20:49;12.30;99.90
736;DHT22;352;48.626;9.238;2022-11-25T13:23:27;12.30;99.90
736;DHT22;352;48.626;9.238;2022-11-25T13:28:58;12.20;99.90
736;DHT22;352;48.626;9.238;2022-11-25T13:31:30;12.10;99.90
736;DHT22;352;48.626;9.238;2022-11-25T13:34:26;12.00;99.90
736;DHT22;352;48.626;9.238;2022-11-25T13:36:54;11.90;99.90
736;DHT22;352;48.626;9.238;2022-11-25T13:39:30;11.90;99.90
736;DHT22;352;48.626;9.238;2022-11-25T13:42:02;11.80;99.90
736;DHT22;352;48.626;9.238;2022-11-25T13:44:32;11.80;99.90
736;DHT22;352;48.626;9.238;2022-11-25T13:47:22;11.70;99.90
736;DHT22;352;48.626;9.238;2022-11-25T13:49:51;11.70;99.90
736;DHT22;352;48.626;9.238;2022-11-25T13:52:33;11.70;99.90
736;DHT22;352;48.626;9.238;2022-11-25T13:55:08;11.70;99.90
736;DHT22;352;48.626;9.238;2022-11-25T13:57:39;11.70;99.90
736;DHT22;352;48.626;9.238;2022-11-25T14:00:40;11.70;99.90
736;DHT22;352;48.626;9.238;2022-11-25T14:06:08;11.70;99.90
736;DHT22;352;48.626;9.238;2022-11-25T14:08:41;11.70;99.90
736;DHT22;352;48.626;9.238;2022-11-25T14:11:34;11.70;99.90
736;DHT22;352;48.626;9.238;2022-11-25T14:14:28;11.60;99.90
736;DHT22;352;48.626;9.238;2022-11-25T14:17:18;11.70;99.90
736;DHT22;352;48.626;9.238;2022-11-25T14:20:02;11.70;99.90
736;DHT22;352;48.626;9.238;2022-11-25T14:25:21;11.70;99.90
736;DHT22;352;48.626;9.238;2022-11-25T14:27:51;11.60;99.90
736;DHT22;352;48.626;9.238;2022-11-25T14:30:21;11.50;99.90
736;DHT22;352;48.626;9.238;2022-11-25T14:32:53;11.50;99.90
736;DHT22;352;48.626;9.238;2022-11-25T14:35:25;11.40;99.90
736;DHT22;352;48.626;9.238;2022-11-25T14:37:57;11.40;99.90
736;DHT22;352;48.626;9.238;2022-11-25T14:40:27;11.30;99.90
736;DHT22;352;48.626;9.238;2022-11-25T14:43:01;11.30;99.90
736;DHT22;352;48.626;9.238;2022-11-25T14:45:30;11.30;99.90
736;DHT22;352;48.626;9.238;2022-11-25T14:48:11;11.30;99.90
736;DHT22;352;48.626;9.238;2022-11-25T14:50:39;11.20;99.90
736;DHT22;352;48.626;9.238;2022-11-25T14:53:07;11.10;99.90
736;DHT22;352;48.626;9.238;2022-11-25T14:55:34;10.90;99.90
736;DHT22;352;48.626;9.238;2022-11-25T14:58:02;10.80;99.90
736;DHT22;352;48.626;9.238;2022-11-25T15:00:29;10.70;99.90
736;DHT22;352;48.626;9.238;2022-11-25T15:02:59;10.70;99.90
736;DHT22;352;48.626;9.238;2022-11-25T15:05:30;10.70;99.90
736;DHT22;352;48.626;9.238;2022-11-25T15:08:02;10.60;99.90
736;DHT22;352;48.626;9.238;2022-11-25T15:10:42;10.70;99.90
736;DHT22;352;48.626;9.238;2022-11-25T15:13:19;10.70;99.90
736;DHT22;352;48.626;9.238;2022-11-25T15:15:49;10.70;99.90
736;DHT22;352;48.626;9.238;2022-11-25T15:18:21;10.70;99.90
736;DHT22;352;48.626;9.238;2022-11-25T15:20:54;10.60;99.90
736;DHT22;352;48.626;9.238;2022-11-25T15:23:27;10.60;99.90
736;DHT22;352;48.626;9.238;2022-11-25T15:25:59;10.60;99.90
736;DHT22;352;48.626;9.238;2022-11-25T15:28:34;10.60;99.90
736;DHT22;352;48.626;9.238;2022-11-25T15:31:08;10.50;99.90
736;DHT22;352;48.626;9.238;2022-11-25T15:33:37;10.50;99.90
736;DHT22;352;48.626;9.238;2022-11-25T15:36:05;10.40;99.90
736;DHT22;352;48.626;9.238;2022-11-25T15:38:38;10.40;99.90
736;DHT22;352;48.626;9.238;2022-11-25T15:41:18;10.40;99.90
736;DHT22;352;48.626;9.238;2022-11-25T15:43:46;10.30;99.90
736;DHT22;352;48.626;9.238;2022-11-25T15:46:15;10.10;99.90
736;DHT22;352;48.626;9.238;2022-11-25T15:48:44;10.00;99.90
736;DHT22;352;48.626;9.238;2022-11-25T15:51:34;9.90;99.90
736;DHT22;352;48.626;9.238;2022-11-25T15:54:12;9.90;99.90
736;DHT22;352;48.626;9.238;2022-11-25T15:56:44;9.80;99.90
736;DHT22;352;48.626;9.238;2022-11-25T15:59:37;9.70;99.90
736;DHT22;352;48.626;9.238;2022-11-25T16:02:30;9.60;99.90
736;DHT22;352;48.626;9.238;2022-11-25T16:05:16;9.60;99.90
736;DHT22;352;48.626;9.238;2022-11-25T16:08:00;9.60;99.90
736;DHT22;352;48.626;9.238;2022-11-25T16:10:29;9.50;99.90
736;DHT22;352;48.626;9.238;2022-11-25T16:13:25;9.50;99.90
736;DHT22;352;48.626;9.238;2022-11-25T16:15:57;9.50;99.90
736;DHT22;352;48.626;9.238;2022-11-25T16:18:31;9.40;99.90
736;DHT22;352;48.626;9.238;2022-11-25T16:21:04;9.40;99.90
736;DHT22;352;48.626;9.238;2022-11-25T16:23:35;9.50;99.90
736;DHT22;352;48.626;9.238;2022-11-25T16:26:06;9.40;99.90
736;DHT22;352;48.626;9.238;2022-11-25T16:28:40;9.40;99.90
736;DHT22;352;48.626;9.238;2022-11-25T16:31:09;9.40;99.90
736;DHT22;352;48.626;9.238;2022-11-25T16:33:38;9.30;99.90
736;DHT22;352;48.626;9.238;2022-11-25T16:36:08;9.20;99.90
736;DHT22;352;48.626;9.238;2022-11-25T16:38:35;9.10;99.90
736;DHT22;352;48.626;9.238;2022-11-25T16:41:08;9.00;99.90
736;DHT22;352;48.626;9.238;2022-11-25T16:43:36;9.00;99.90
736;DHT22;352;48.626;9.238;2022-11-25T16:46:05;9.00;99.90
736;DHT22;352;48.626;9.238;2022-11-25T16:48:33;8.90;99.90
736;DHT22;352;48.626;9.238;2022-11-25T16:51:01;8.80;99.90
736;DHT22;352;48.626;9.238;2022-11-25T16:53:30;8.80;99.90
736;DHT22;352;48.626;9.238;2022-11-25T16:55:57;8.70;99.90
736;DHT22;352;48.626;9.238;2022-11-25T16:58:27;8.60;99.90
736;DHT22;352;48.626;9.238;2022-11-25T17:00:55;8.60;99.90
736;DHT22;352;48.626;9.238;2022-11-25T17:03:23;8.50;99.90
736;DHT22;352;48.626;9.238;2022-11-25T17:05:51;8.50;99.90
736;DHT22;352;48.626;9.238;2022-11-25T17:08:19;8.60;99.90
736;DHT22;352;48.626;9.238;2022-11-25T17:10:48;8.60;99.90
736;DHT22;352;48.626;9.238;2022-11-25T17:13:17;8.70;99.90
736;DHT22;352;48.626;9.238;2022-11-25T17:15:47;8.80;99.90
736;DHT22;352;48.626;9.238;2022-11-25T17:18:15;8.90;99.90
736;DHT22;352;48.626;9.238;2022-11-25T17:20:43;8.90;99.90
736;DHT22;352;48.626;9.238;2022-11-25T17:23:12;8.90;99.90